Time;durP1;ratioP1;P1;durP2;ratioP2;P2;SDS_P1;SDS_P2;PMS_P1;PMS_P2;Temp;Humidity;BMP_temperature;BMP_pressure;BME280_temperature;BME280_humidity;BME280_pressure;Samples;Min_cycle;Max_cycle;Signal;HPM_P1;HPM_P2
2023/06/20 00:00:10;;;;;;;9.27;7.30;;;21.10;99.90;;;;;;5088102;28;20291;-60
2023/06/20 00:02:39;;;;;;;8.97;7.40;;;21.00;99.90;;;;;;5090054;28;20276;-62
2023/06/20 00:05:08;;;;;;;9.10;7.20;;;21.00;99.90;;;;;;5090679;28;20546;-62
2023/06/20 00:07:36;;;;;;;9.50;7.27;;;21.00;99.90;;;;;;5091922;28;20240;-62
2023/06/20 00:10:05;;;;;;;11.20;8.20;;;21.00;99.90;;;;;;5088569;28;20219;-62
2023/06/20 00:12:35;;;;;;;10.40;7.60;;;21.00;99.90;;;;;;5088755;28;20231;-61
2023/06/20 00:15:04;;;;;;;10.57;7.70;;;21.00;99.90;;;;;;5092548;28;20203;-62
2023/06/20 00:17:32;;;;;;;8.03;7.23;;;21.00;99.90;;;;;;5086982;28;20226;-62
2023/06/20 00:20:04;;;;;;;8.40;7.20;;;21.00;99.90;;;;;;5073162;28;20297;-62
2023/06/20 00:22:34;;;;;;;8.20;7.40;;;20.90;99.90;;;;;;5091985;28;20223;-62
2023/06/20 00:25:04;;;;;;;7.80;7.10;;;20.90;99.90;;;;;;5089272;28;20695;-61
2023/06/20 00:27:33;;;;;;;8.50;7.57;;;20.90;99.90;;;;;;5089224;28;20219;-62
2023/06/20 00:30:02;;;;;;;8.10;7.30;;;20.90;99.90;;;;;;5091941;28;20783;-62
2023/06/20 00:32:30;;;;;;;10.07;8.10;;;20.90;99.90;;;;;;5091182;28;20699;-61
2023/06/20 00:34:58;;;;;;;9.00;8.10;;;20.80;99.90;;;;;;5088027;28;20218;-62
2023/06/20 00:37:27;;;;;;;7.27;6.57;;;20.80;99.90;;;;;;5090764;28;20315;-61
2023/06/20 00:39:55;;;;;;;11.23;7.60;;;20.90;99.90;;;;;;5088698;28;20223;-62
2023/06/20 00:42:24;;;;;;;8.83;6.90;;;20.90;99.90;;;;;;5085716;28;20187;-61
2023/06/20 00:44:54;;;;;;;8.43;7.63;;;20.90;99.90;;;;;;5089137;28;20227;-62
2023/06/20 00:47:23;;;;;;;10.63;7.40;;;20.90;99.90;;;;;;5085297;28;20560;-62
2023/06/20 00:49:52;;;;;;;7.77;6.97;;;20.90;99.90;;;;;;5090702;28;20219;-62
2023/06/20 00:52:22;;;;;;;8.13;7.20;;;20.90;99.90;;;;;;5073872;28;20235;-62
2023/06/20 00:54:51;;;;;;;8.57;6.90;;;20.90;99.90;;;;;;5076780;28;20230;-62
2023/06/20 00:57:20;;;;;;;8.27;7.10;;;20.90;99.90;;;;;;5083613;28;20194;-62
2023/06/20 00:59:50;;;;;;;8.07;7.37;;;20.80;99.90;;;;;;5085858;28;20199;-62
2023/06/20 01:02:21;;;;;;;8.37;7.30;;;20.80;99.90;;;;;;5067870;28;20208;-62
2023/06/20 01:04:50;;;;;;;7.97;7.07;;;20.80;99.90;;;;;;5090384;28;20234;-62
2023/06/20 01:07:26;;;;;;;7.43;6.83;;;20.70;99.90;;;;;;5070102;28;20230;-61
2023/06/20 01:10:00;;;;;;;10.27;7.50;;;20.70;99.90;;;;;;5072544;28;20464;-61
2023/06/20 01:12:39;;;;;;;8.63;7.70;;;20.70;99.90;;;;;;5087813;28;20645;-62
2023/06/20 01:15:14;;;;;;;7.77;7.07;;;20.60;99.90;;;;;;5088018;28;20215;-62
2023/06/20 01:17:49;;;;;;;8.03;7.17;;;20.60;99.90;;;;;;5083755;28;20225;-62
2023/06/20 01:20:25;;;;;;;7.53;6.80;;;20.60;99.90;;;;;;5085650;28;20222;-62
2023/06/20 01:23:02;;;;;;;10.00;7.03;;;20.60;99.90;;;;;;5084589;28;20226;-61
2023/06/20 01:25:39;;;;;;;7.93;6.90;;;20.60;99.90;;;;;;5083100;28;20250;-62
2023/06/20 01:28:11;;;;;;;7.97;7.27;;;20.60;99.90;;;;;;5087760;28;20245;-62
2023/06/20 01:30:45;;;;;;;10.93;7.83;;;20.60;99.90;;;;;;5089449;28;20229;-62
2023/06/20 01:33:16;;;;;;;8.47;7.67;;;20.60;99.90;;;;;;5083443;28;20211;-61
2023/06/20 01:35:47;;;;;;;9.37;7.97;;;20.50;99.90;;;;;;5079859;28;20199;-62
2023/06/20 01:38:21;;;;;;;8.10;7.30;;;20.50;99.90;;;;;;5083208;28;20220;-61
2023/06/20 01:40:50;;;;;;;9.07;7.80;;;20.60;99.90;;;;;;5088716;28;20219;-61
2023/06/20 01:43:21;;;;;;;11.20;7.87;;;20.60;99.90;;;;;;5089310;28;20242;-62
2023/06/20 01:45:51;;;;;;;8.33;7.47;;;20.60;99.90;;;;;;5086149;28;20289;-62
2023/06/20 01:48:22;;;;;;;10.20;7.43;;;20.60;99.90;;;;;;5087725;28;20191;-62
2023/06/20 01:58:24;;;;;;;7.87;7.20;;;20.40;99.90;;;;;;5066172;28;20239;-62
2023/06/20 02:00:56;;;;;;;9.30;8.40;;;20.40;99.90;;;;;;5081865;28;20223;-61
2023/06/20 02:03:27;;;;;;;8.20;7.40;;;20.40;99.90;;;;;;5082329;28;20645;-62
2023/06/20 02:05:58;;;;;;;9.07;8.17;;;20.30;99.90;;;;;;5085029;28;20192;-62
2023/06/20 02:08:27;;;;;;;9.67;7.77;;;20.30;99.90;;;;;;5082967;28;20739;-62
2023/06/20 02:10:56;;;;;;;8.80;7.90;;;20.20;99.90;;;;;;5081503;28;20269;-61
2023/06/20 02:13:26;;;;;;;8.90;7.73;;;20.20;99.90;;;;;;5082476;28;20241;-61
2023/06/20 02:15:55;;;;;;;8.47;7.67;;;20.20;99.90;;;;;;5083488;28;20222;-62
2023/06/20 02:18:24;;;;;;;12.97;7.70;;;20.20;99.90;;;;;;5064074;28;20217;-61
2023/06/20 02:20:53;;;;;;;9.17;7.30;;;20.10;99.90;;;;;;5083393;28;20294;-61
2023/06/20 02:23:27;;;;;;;8.90;7.70;;;20.10;99.90;;;;;;5086045;28;20215;-62
2023/06/20 02:26:01;;;;;;;8.90;7.67;;;20.00;99.90;;;;;;5084772;28;20226;-61
2023/06/20 02:28:31;;;;;;;10.93;8.17;;;20.00;99.90;;;;;;5063438;28;20572;-62
2023/06/20 02:31:01;;;;;;;8.10;7.30;;;19.90;99.90;;;;;;5083018;28;20218;-61
2023/06/20 02:33:32;;;;;;;11.07;8.17;;;19.90;99.90;;;;;;5086615;28;20208;-61
2023/06/20 02:36:03;;;;;;;9.43;8.30;;;19.80;99.90;;;;;;5086886;28;20190;-62
2023/06/20 02:38:32;;;;;;;11.20;8.40;;;19.80;99.90;;;;;;5084683;28;20215;-61
2023/06/20 02:41:00;;;;;;;8.70;7.80;;;19.80;99.90;;;;;;5081767;28;20215;-61
2023/06/20 02:43:29;;;;;;;11.57;8.87;;;19.70;99.90;;;;;;5085191;28;20215;-61
2023/06/20 02:46:05;;;;;;;9.27;8.17;;;19.70;99.90;;;;;;5083521;28;20220;-63
2023/06/20 02:48:43;;;;;;;11.10;7.57;;;19.60;99.90;;;;;;5084509;28;20309;-62
2023/06/20 02:51:17;;;;;;;11.37;8.43;;;19.60;99.90;;;;;;5087136;28;20611;-61
2023/06/20 02:53:53;;;;;;;11.07;7.70;;;19.50;99.90;;;;;;5087466;28;20211;-62
2023/06/20 02:56:23;;;;;;;8.97;8.00;;;19.40;99.90;;;;;;5083111;28;20621;-61
2023/06/20 02:58:54;;;;;;;10.87;8.00;;;19.40;99.90;;;;;;5087415;28;20214;-61
2023/06/20 03:01:26;;;;;;;10.30;8.80;;;19.40;99.90;;;;;;5090767;28;20780;-62
2023/06/20 03:03:58;;;;;;;10.83;8.63;;;19.40;99.90;;;;;;5089415;28;20306;-62
2023/06/20 03:06:28;;;;;;;9.90;8.70;;;19.30;99.90;;;;;;5093695;28;20199;-62
2023/06/20 03:08:59;;;;;;;12.07;8.53;;;19.30;99.90;;;;;;5093475;28;20199;-61
2023/06/20 03:11:27;;;;;;;17.37;8.13;;;19.30;99.90;;;;;;5085317;28;20264;-61
2023/06/20 03:13:56;;;;;;;9.23;8.23;;;19.30;99.90;;;;;;5071925;28;20215;-61
2023/06/20 03:16:26;;;;;;;9.63;8.20;;;19.30;99.90;;;;;;5089500;28;20867;-61
2023/06/20 03:18:55;;;;;;;11.90;8.27;;;19.20;99.90;;;;;;5093141;28;20215;-61
2023/06/20 03:21:24;;;;;;;9.13;8.10;;;19.20;99.90;;;;;;5087616;28;20203;-61
2023/06/20 03:23:57;;;;;;;9.53;8.63;;;19.20;99.90;;;;;;5092515;28;20763;-61
2023/06/20 03:26:25;;;;;;;9.53;8.47;;;19.20;99.90;;;;;;5084218;28;20224;-61
2023/06/20 03:28:54;;;;;;;12.80;8.40;;;19.10;99.90;;;;;;5068731;28;20215;-61
2023/06/20 03:31:22;;;;;;;10.17;9.17;;;19.00;99.90;;;;;;5089037;28;20225;-61
2023/06/20 03:33:52;;;;;;;9.67;8.77;;;19.00;99.90;;;;;;5089993;28;20231;-61
2023/06/20 03:36:20;;;;;;;12.93;8.87;;;19.00;99.90;;;;;;5089021;28;20545;-61
2023/06/20 03:38:49;;;;;;;10.90;8.73;;;18.90;99.90;;;;;;5073210;28;20211;-61
2023/06/20 03:41:17;;;;;;;10.40;9.03;;;18.90;99.90;;;;;;5086658;28;20234;-62
2023/06/20 03:43:46;;;;;;;11.33;9.43;;;18.90;99.90;;;;;;5084588;28;20227;-61
2023/06/20 03:46:14;;;;;;;9.97;8.70;;;18.90;99.90;;;;;;5089577;28;20234;-61
2023/06/20 03:48:42;;;;;;;13.27;8.67;;;18.90;99.90;;;;;;5091086;28;20238;-61
2023/06/20 03:51:12;;;;;;;9.37;8.43;;;18.90;99.90;;;;;;5085163;28;20199;-60
2023/06/20 03:53:40;;;;;;;10.27;8.77;;;18.90;99.90;;;;;;5089256;28;20207;-62
2023/06/20 03:56:09;;;;;;;9.43;8.50;;;18.90;99.90;;;;;;5089293;28;20220;-61
2023/06/20 03:58:37;;;;;;;10.00;9.03;;;18.90;99.90;;;;;;5086559;28;20318;-62
2023/06/20 04:01:06;;;;;;;10.07;9.07;;;18.90;99.90;;;;;;5091239;28;20211;-61
2023/06/20 04:03:35;;;;;;;12.17;8.77;;;18.90;99.90;;;;;;5078096;28;20230;-61
2023/06/20 04:06:03;;;;;;;10.70;9.40;;;18.90;99.90;;;;;;5091356;28;20576;-61
2023/06/20 04:08:33;;;;;;;10.33;9.13;;;19.00;99.90;;;;;;5093874;28;20222;-61
2023/06/20 04:11:02;;;;;;;12.23;9.07;;;19.10;99.90;;;;;;5070684;28;20791;-61
2023/06/20 04:13:30;;;;;;;11.70;9.67;;;19.10;99.90;;;;;;5085786;28;20224;-61
2023/06/20 04:15:59;;;;;;;10.00;9.00;;;19.20;99.90;;;;;;5089582;28;20215;-61
2023/06/20 04:18:27;;;;;;;12.00;9.37;;;19.30;99.90;;;;;;5086431;28;20549;-61
2023/06/20 04:21:02;;;;;;;9.77;8.90;;;19.30;99.90;;;;;;5086102;28;20654;-61
2023/06/20 04:23:32;;;;;;;10.77;9.67;;;19.30;99.90;;;;;;5082924;28;20222;-62
2023/06/20 04:26:01;;;;;;;10.73;9.47;;;19.40;99.90;;;;;;5082570;28;20215;-61
2023/06/20 04:28:30;;;;;;;10.63;9.53;;;19.40;99.90;;;;;;5083837;28;20226;-61
2023/06/20 04:30:59;;;;;;;10.50;9.27;;;19.40;99.90;;;;;;5091608;28;20245;-61
2023/06/20 04:33:28;;;;;;;12.87;9.60;;;19.50;99.90;;;;;;5088119;28;20187;-61
2023/06/20 04:35:57;;;;;;;10.63;8.87;;;19.60;99.90;;;;;;5092311;28;20218;-62
2023/06/20 04:38:26;;;;;;;12.57;9.13;;;19.80;99.90;;;;;;5083995;28;20345;-62
2023/06/20 04:41:00;;;;;;;11.07;8.53;;;19.80;99.90;;;;;;5087883;28;20223;-62
2023/06/20 04:43:30;;;;;;;10.67;9.23;;;19.80;99.90;;;;;;5087971;28;20334;-61
2023/06/20 04:45:58;;;;;;;9.53;8.63;;;20.00;99.90;;;;;;5089152;28;20238;-62
2023/06/20 04:48:28;;;;;;;9.90;9.00;;;20.10;99.90;;;;;;5089416;28;20459;-62
2023/06/20 04:50:58;;;;;;;11.07;9.40;;;20.10;99.90;;;;;;5086844;28;20557;-62
2023/06/20 04:53:26;;;;;;;10.60;9.50;;;20.10;99.90;;;;;;5087844;28;20689;-62
2023/06/20 04:55:55;;;;;;;10.57;8.93;;;20.10;99.90;;;;;;5084835;28;20223;-61
2023/06/20 04:58:28;;;;;;;10.60;8.60;;;20.20;99.90;;;;;;5062462;28;20226;-61
2023/06/20 05:00:56;;;;;;;9.73;8.73;;;20.20;99.90;;;;;;5085374;28;20302;-62
2023/06/20 05:03:25;;;;;;;11.17;8.73;;;20.10;99.90;;;;;;5082951;28;20203;-62
2023/06/20 05:05:54;;;;;;;13.43;8.37;;;20.20;99.90;;;;;;5087916;28;20218;-61
2023/06/20 05:08:22;;;;;;;10.37;8.90;;;20.20;99.90;;;;;;5084505;28;20785;-61
2023/06/20 05:10:50;;;;;;;11.97;9.20;;;20.10;99.90;;;;;;5082263;28;20298;-61
2023/06/20 05:13:19;;;;;;;11.03;8.63;;;20.10;99.90;;;;;;5082904;28;20216;-61
2023/06/20 05:15:49;;;;;;;9.53;8.53;;;20.10;99.90;;;;;;5083973;28;20593;-61
2023/06/20 05:18:17;;;;;;;15.53;8.07;;;20.10;99.90;;;;;;5092909;28;20199;-61
2023/06/20 05:20:46;;;;;;;9.13;7.90;;;20.20;99.90;;;;;;5091187;28;20199;-62
2023/06/20 05:23:14;;;;;;;12.37;8.43;;;20.40;99.90;;;;;;5084884;28;20265;-62
2023/06/20 05:25:42;;;;;;;8.33;7.57;;;20.50;99.90;;;;;;5083142;28;20242;-62
2023/06/20 05:28:11;;;;;;;8.77;7.90;;;20.60;99.90;;;;;;5081481;28;20219;-62
2023/06/20 05:30:39;;;;;;;8.90;8.00;;;20.80;99.90;;;;;;5087573;28;20242;-62
2023/06/20 05:33:09;;;;;;;7.73;7.03;;;21.00;99.90;;;;;;5080888;28;20187;-62
2023/06/20 05:35:51;;;;;;;8.33;7.27;;;21.10;99.90;;;;;;5073946;28;20227;-62
2023/06/20 05:38:19;;;;;;;9.50;7.13;;;21.20;99.90;;;;;;5080967;28;20228;-61
2023/06/20 05:40:47;;;;;;;7.70;7.00;;;21.20;99.90;;;;;;5079450;28;20214;-62
2023/06/20 05:43:16;;;;;;;8.30;7.27;;;21.20;99.90;;;;;;5084995;28;20551;-61
2023/06/20 05:45:45;;;;;;;8.10;6.73;;;21.20;99.90;;;;;;5085651;28;20228;-62
2023/06/20 05:48:14;;;;;;;7.13;6.50;;;21.30;99.90;;;;;;5088588;28;20195;-61
2023/06/20 05:50:42;;;;;;;7.33;6.63;;;21.50;99.90;;;;;;5087520;28;20689;-62
2023/06/20 05:53:11;;;;;;;7.40;6.70;;;21.50;99.90;;;;;;5087568;28;20215;-62
2023/06/20 05:55:39;;;;;;;11.60;6.53;;;21.60;99.90;;;;;;5083018;28;21243;-62
2023/06/20 05:58:08;;;;;;;7.50;6.83;;;21.70;99.90;;;;;;5088256;28;20227;-62
2023/06/20 06:00:37;;;;;;;7.17;6.57;;;21.80;99.90;;;;;;5081393;28;20219;-62
2023/06/20 06:03:05;;;;;;;6.93;6.23;;;21.90;99.90;;;;;;5084515;28;20195;-62
2023/06/20 06:05:35;;;;;;;7.17;6.57;;;21.90;99.90;;;;;;5083226;28;20215;-62
2023/06/20 06:08:03;;;;;;;7.67;6.73;;;22.00;99.90;;;;;;5084251;28;20218;-62
2023/06/20 06:10:31;;;;;;;7.70;6.70;;;22.10;99.90;;;;;;5084865;28;20223;-62
2023/06/20 06:13:00;;;;;;;7.53;6.60;;;22.10;99.90;;;;;;5089836;28;20226;-62
2023/06/20 06:15:28;;;;;;;12.77;6.87;;;22.20;99.90;;;;;;5090573;28;20734;-62
2023/06/20 06:17:57;;;;;;;7.07;5.77;;;22.30;99.90;;;;;;5090446;28;20184;-62
2023/06/20 06:20:28;;;;;;;9.43;6.47;;;22.40;99.90;;;;;;5089578;28;20219;-62
2023/06/20 06:22:58;;;;;;;6.93;5.97;;;22.50;99.90;;;;;;5082805;28;20211;-62
2023/06/20 06:25:27;;;;;;;6.47;5.87;;;22.70;99.90;;;;;;5084094;28;20219;-61
2023/06/20 06:27:55;;;;;;;10.47;5.67;;;22.80;99.90;;;;;;5084916;28;20223;-60
2023/06/20 06:30:23;;;;;;;6.73;6.03;;;22.90;99.90;;;;;;5091469;28;20191;-60
2023/06/20 06:32:53;;;;;;;6.43;5.77;;;23.00;99.90;;;;;;5091385;28;20792;-61
2023/06/20 06:35:21;;;;;;;6.80;6.10;;;22.90;99.90;;;;;;5094033;28;20226;-61
2023/06/20 06:37:52;;;;;;;5.97;5.37;;;22.90;99.90;;;;;;5094078;28;20211;-61
2023/06/20 06:40:22;;;;;;;7.87;5.37;;;22.90;99.90;;;;;;5095146;28;20528;-61
2023/06/20 06:42:51;;;;;;;5.40;5.00;;;23.20;99.90;;;;;;5095706;28;20679;-60
2023/06/20 06:45:19;;;;;;;7.33;6.60;;;23.40;99.90;;;;;;5082689;28;20679;-60
2023/06/20 06:47:47;;;;;;;6.37;5.53;;;23.50;99.90;;;;;;5092563;28;20288;-60
2023/06/20 06:50:16;;;;;;;5.70;5.20;;;23.70;99.90;;;;;;5096129;28;20232;-59
2023/06/20 06:52:45;;;;;;;6.50;5.67;;;23.60;99.90;;;;;;5096100;28;20232;-60
2023/06/20 06:55:13;;;;;;;5.83;5.17;;;23.70;99.90;;;;;;5095692;28;20227;-60
2023/06/20 06:57:43;;;;;;;5.53;5.00;;;23.70;99.90;;;;;;5089173;28;20221;-59
2023/06/20 07:00:14;;;;;;;5.97;5.53;;;23.70;99.90;;;;;;5095130;28;20197;-59
2023/06/20 07:02:44;;;;;;;5.43;4.93;;;23.70;99.90;;;;;;5095507;28;20586;-61
2023/06/20 07:05:12;;;;;;;5.20;4.90;;;23.80;99.90;;;;;;5095351;28;20209;-61
2023/06/20 07:07:41;;;;;;;5.20;4.80;;;23.80;99.90;;;;;;5094941;28;20218;-62
2023/06/20 07:10:09;;;;;;;5.70;5.30;;;23.80;99.90;;;;;;5092927;28;20316;-60
2023/06/20 07:12:38;;;;;;;6.60;4.97;;;24.00;99.90;;;;;;5092336;28;20229;-60
2023/06/20 07:15:08;;;;;;;10.43;5.00;;;24.10;99.90;;;;;;5091838;28;20213;-61
2023/06/20 07:17:37;;;;;;;5.07;4.73;;;24.30;99.90;;;;;;5086492;28;20296;-61
2023/06/20 07:20:09;;;;;;;5.97;4.80;;;24.40;99.90;;;;;;5093343;28;20261;-62
2023/06/20 07:22:38;;;;;;;4.43;4.20;;;24.60;99.90;;;;;;5090466;28;20673;-61
2023/06/20 07:25:08;;;;;;;7.23;5.03;;;24.60;99.90;;;;;;5091664;28;20233;-59
2023/06/20 07:27:36;;;;;;;7.07;4.90;;;24.50;99.90;;;;;;5094313;28;20223;-62
2023/06/20 07:30:07;;;;;;;5.00;4.60;;;24.50;99.90;;;;;;5088623;28;20203;-60
2023/06/20 07:32:35;;;;;;;4.53;4.27;;;24.50;99.90;;;;;;5089643;28;20682;-59
2023/06/20 07:35:04;;;;;;;4.33;3.93;;;24.50;99.90;;;;;;5094492;28;20280;-57
2023/06/20 07:37:33;;;;;;;4.30;4.00;;;24.60;99.90;;;;;;5090548;28;20222;-63
2023/06/20 07:40:04;;;;;;;5.23;4.60;;;24.60;99.90;;;;;;5089091;28;20213;-64
2023/06/20 07:50:08;;;;;;;4.57;4.17;;;25.10;99.90;;;;;;5087600;28;20244;-65
2023/06/20 07:52:36;;;;;;;4.47;4.27;;;25.20;99.90;;;;;;5090298;28;20231;-59
2023/06/20 07:55:05;;;;;;;7.03;4.90;;;25.30;99.90;;;;;;5087803;28;20672;-63
2023/06/20 07:57:53;;;;;;;6.83;4.10;;;25.30;99.90;;;;;;5093835;28;20232;-62
2023/06/20 08:00:23;;;;;;;4.57;3.97;;;25.10;99.90;;;;;;5090440;28;20181;-62
2023/06/20 08:02:52;;;;;;;8.00;4.23;;;25.30;99.90;;;;;;5089151;28;20194;-62
2023/06/20 08:05:21;;;;;;;3.83;3.50;;;25.50;99.90;;;;;;5093411;28;20234;-62
2023/06/20 08:07:50;;;;;;;4.63;4.17;;;25.70;99.90;;;;;;5093472;28;20241;-66
2023/06/20 08:10:19;;;;;;;5.80;4.03;;;25.90;99.90;;;;;;5087414;28;20230;-61
2023/06/20 08:12:47;;;;;;;6.20;3.97;;;25.90;99.90;;;;;;5094742;28;20226;-61
2023/06/20 08:15:16;;;;;;;5.17;4.00;;;25.90;99.90;;;;;;5092073;28;20194;-61
2023/06/20 08:17:44;;;;;;;8.83;4.30;;;25.80;99.90;;;;;;5089333;28;20199;-65
2023/06/20 08:20:12;;;;;;;3.80;3.50;;;26.00;99.90;;;;;;5086271;28;20677;-60
2023/06/20 08:22:42;;;;;;;4.03;3.53;;;26.00;99.90;;;;;;5089402;28;20216;-57
2023/06/20 08:25:11;;;;;;;3.80;3.40;;;26.20;99.90;;;;;;5087721;28;20799;-58
2023/06/20 08:27:39;;;;;;;6.93;3.40;;;26.20;99.90;;;;;;5087691;28;20234;-57
2023/06/20 08:30:08;;;;;;;4.10;3.60;;;26.10;99.90;;;;;;5081172;28;20203;-59
2023/06/20 08:32:39;;;;;;;7.67;3.90;;;26.20;99.90;;;;;;5081353;28;20222;-59
2023/06/20 08:35:09;;;;;;;4.73;3.90;;;26.30;99.90;;;;;;5079806;28;20220;-59
2023/06/20 08:37:38;;;;;;;4.30;4.00;;;26.40;99.90;;;;;;5089373;28;20215;-59
2023/06/20 08:40:12;;;;;;;3.77;3.47;;;26.30;99.90;;;;;;5087707;28;20230;-59
2023/06/20 08:42:43;;;;;;;6.47;4.60;;;26.50;99.90;;;;;;5084386;28;20242;-59
2023/06/20 08:45:12;;;;;;;7.27;4.20;;;26.60;99.90;;;;;;5086521;28;20190;-59
2023/06/20 08:47:40;;;;;;;6.43;3.90;;;26.90;99.90;;;;;;5083422;28;20204;-59
2023/06/20 08:50:10;;;;;;;5.63;4.40;;;26.90;99.90;;;;;;5085194;28;20235;-60
2023/06/20 08:52:46;;;;;;;4.77;4.40;;;26.80;99.90;;;;;;5080430;28;20326;-59
2023/06/20 08:55:17;;;;;;;4.33;4.03;;;26.60;99.90;;;;;;5083782;28;20214;-60
2023/06/20 08:57:47;;;;;;;5.03;4.60;;;26.70;99.90;;;;;;5084976;28;20228;-59
2023/06/20 09:00:20;;;;;;;4.97;3.60;;;26.90;99.90;;;;;;5090408;28;20202;-59
2023/06/20 09:02:49;;;;;;;7.10;4.03;;;27.00;99.90;;;;;;5084015;28;20206;-60
2023/06/20 09:05:19;;;;;;;3.60;3.40;;;27.00;99.90;;;;;;5088388;28;20265;-59
2023/06/20 09:07:47;;;;;;;4.10;3.40;;;27.00;99.90;;;;;;5089120;28;20219;-59
2023/06/20 09:10:21;;;;;;;3.80;3.60;;;27.20;99.90;;;;;;5087107;28;20573;-59
2023/06/20 09:12:51;;;;;;;3.97;3.57;;;27.20;99.90;;;;;;5089483;28;20218;-59
2023/06/20 09:15:20;;;;;;;3.73;3.30;;;27.30;99.90;;;;;;5083145;28;20196;-59
2023/06/20 09:17:51;;;;;;;3.70;3.33;;;27.50;99.90;;;;;;5089288;28;20208;-59
2023/06/20 09:20:21;;;;;;;3.88;3.58;;;27.70;99.90;;;;;;5085953;28;20643;-59
2023/06/20 09:22:49;;;;;;;4.00;3.13;;;27.90;99.90;;;;;;5089886;28;20215;-59
2023/06/20 09:25:22;;;;;;;3.77;3.47;;;28.10;99.90;;;;;;5090084;28;20269;-59
2023/06/20 09:27:52;;;;;;;4.07;2.72;;;28.30;99.90;;;;;;5091493;28;20217;-59
2023/06/20 09:30:20;;;;;;;3.50;3.30;;;28.60;99.90;;;;;;5085140;28;20659;-59
2023/06/20 09:32:52;;;;;;;4.75;2.95;;;28.80;99.90;;;;;;5084324;28;20686;-59
2023/06/20 09:35:21;;;;;;;3.13;2.83;;;28.90;99.90;;;;;;5087362;28;20220;-59
2023/06/20 09:37:53;;;;;;;3.28;2.95;;;29.10;99.90;;;;;;5081683;28;20960;-60
2023/06/20 09:40:23;;;;;;;3.42;2.92;;;29.30;99.90;;;;;;5085347;28;20234;-60
2023/06/20 09:42:57;;;;;;;6.70;3.60;;;29.70;99.90;;;;;;5082927;28;20301;-59
2023/06/20 09:45:26;;;;;;;3.28;3.08;;;29.70;99.90;;;;;;5087939;28;20185;-60
2023/06/20 09:47:58;;;;;;;3.13;2.92;;;29.70;99.90;;;;;;5079261;28;20692;-60
2023/06/20 09:50:28;;;;;;;3.30;3.10;;;29.80;99.90;;;;;;5076739;28;20224;-59
2023/06/20 09:53:03;;;;;;;3.03;2.90;;;29.70;99.90;;;;;;5084576;28;20223;-59
2023/06/20 09:55:35;;;;;;;3.83;2.97;;;29.70;99.90;;;;;;5086923;28;20670;-59
2023/06/20 09:58:05;;;;;;;3.40;3.10;;;29.80;99.90;;;;;;5086821;28;20217;-60
2023/06/20 10:00:36;;;;;;;3.22;3.05;;;29.70;99.90;;;;;;5087086;28;20248;-59
2023/06/20 10:03:09;;;;;;;4.30;2.95;;;29.60;99.90;;;;;;5083297;28;20197;-60
2023/06/20 10:05:39;;;;;;;3.60;3.20;;;29.50;99.90;;;;;;5082706;28;20213;-60
2023/06/20 10:08:08;;;;;;;3.45;3.10;;;29.40;99.90;;;;;;5067607;28;20225;-60
2023/06/20 10:10:38;;;;;;;3.30;2.92;;;29.50;99.90;;;;;;5062740;28;20214;-60
2023/06/20 10:13:07;;;;;;;4.03;3.33;;;29.50;99.90;;;;;;5060317;28;20223;-60
2023/06/20 10:15:35;;;;;;;3.75;3.47;;;29.60;99.90;;;;;;5076584;28;20327;-59
2023/06/20 10:18:06;;;;;;;3.70;3.40;;;29.60;99.90;;;;;;5080468;28;20225;-60
2023/06/20 10:20:37;;;;;;;3.33;3.22;;;29.40;99.90;;;;;;5081778;28;20285;-60
2023/06/20 10:23:10;;;;;;;5.38;3.38;;;29.50;99.90;;;;;;5085237;28;20226;-60
2023/06/20 10:25:52;;;;;;;12.18;3.20;;;29.70;99.90;;;;;;5086477;28;20224;-60
2023/06/20 10:28:22;;;;;;;3.00;2.90;;;30.00;99.90;;;;;;5075701;28;20589;-60
2023/06/20 10:31:03;;;;;;;3.40;3.25;;;29.90;99.90;;;;;;5086811;28;20239;-60
2023/06/20 10:33:33;;;;;;;3.40;3.20;;;29.70;99.90;;;;;;5081798;28;20225;-59
2023/06/20 10:36:04;;;;;;;3.05;2.90;;;29.80;99.90;;;;;;5088861;28;20228;-59
2023/06/20 10:38:33;;;;;;;3.28;3.08;;;30.10;99.90;;;;;;5078530;28;20225;-60
2023/06/20 10:41:12;;;;;;;6.38;3.70;;;30.10;99.90;;;;;;5082646;28;20742;-59
2023/06/20 10:43:48;;;;;;;3.20;3.10;;;30.20;99.90;;;;;;5087629;28;20216;-60
2023/06/20 10:46:17;;;;;;;3.38;2.97;;;30.00;99.90;;;;;;5079775;28;20212;-59
2023/06/20 10:48:46;;;;;;;3.40;3.15;;;29.70;99.90;;;;;;5081300;28;20218;-60
2023/06/20 10:51:14;;;;;;;3.42;3.22;;;29.60;99.90;;;;;;5080559;28;20221;-61
2023/06/20 10:53:43;;;;;;;3.40;2.90;;;29.60;99.90;;;;;;5085478;28;20725;-63
2023/06/20 10:56:24;;;;;;;3.80;3.58;;;29.70;99.90;;;;;;5083350;28;20592;-60
2023/06/20 10:58:53;;;;;;;3.40;3.30;;;30.00;99.90;;;;;;5079311;28;20228;-60
2023/06/20 11:01:27;;;;;;;3.33;3.13;;;30.20;99.90;;;;;;5079368;28;20221;-60
2023/06/20 11:03:56;;;;;;;5.05;3.50;;;30.40;99.90;;;;;;5084348;28;20235;-60
2023/06/20 11:06:29;;;;;;;4.45;3.20;;;30.30;99.90;;;;;;5074920;28;20658;-60
2023/06/20 11:08:57;;;;;;;3.42;3.22;;;30.50;99.90;;;;;;5081566;28;20201;-61
2023/06/20 11:11:33;;;;;;;3.63;3.40;;;30.60;99.90;;;;;;5083706;28;20222;-60
2023/06/20 11:14:12;;;;;;;4.38;3.10;;;30.40;99.90;;;;;;5083212;28;20216;-60
2023/06/20 11:16:40;;;;;;;3.53;3.33;;;30.30;99.90;;;;;;5086947;28;20221;-60
2023/06/20 11:19:09;;;;;;;4.15;3.30;;;30.40;99.90;;;;;;5088265;28;20294;-60
2023/06/20 11:22:01;;;;;;;4.43;3.40;;;30.40;99.90;;;;;;5089479;28;20274;-60
2023/06/20 11:24:31;;;;;;;3.30;3.00;;;30.30;99.90;;;;;;5087008;28;20730;-60
2023/06/20 11:27:13;;;;;;;6.35;3.22;;;30.30;99.90;;;;;;5091385;28;20193;-60
2023/06/20 11:29:42;;;;;;;3.38;3.10;;;30.20;99.90;;;;;;5076393;28;20271;-60
2023/06/20 11:32:14;;;;;;;3.33;3.13;;;30.10;99.90;;;;;;5088138;28;20213;-59
2023/06/20 11:34:54;;;;;;;5.90;3.08;;;30.20;99.90;;;;;;5092565;28;20709;-61
2023/06/20 11:37:23;;;;;;;3.97;3.67;;;30.30;99.90;;;;;;5090197;28;20233;-61
2023/06/20 11:39:52;;;;;;;3.30;3.20;;;30.50;99.90;;;;;;5092724;28;20679;-60
2023/06/20 11:42:22;;;;;;;3.63;3.42;;;30.60;99.90;;;;;;5094686;28;20644;-60
2023/06/20 11:44:50;;;;;;;3.42;3.28;;;30.90;99.90;;;;;;5094283;28;20191;-61
2023/06/20 11:47:18;;;;;;;4.20;3.45;;;30.80;99.90;;;;;;5093901;28;20887;-60
2023/06/20 11:49:47;;;;;;;3.67;3.38;;;30.50;99.90;;;;;;5092996;28;20663;-61
2023/06/20 11:52:15;;;;;;;3.45;3.35;;;30.20;99.90;;;;;;5093181;28;20218;-60
2023/06/20 11:54:48;;;;;;;4.15;3.63;;;29.90;99.90;;;;;;5094016;28;20584;-60
2023/06/20 11:57:28;;;;;;;4.00;3.20;;;30.00;99.90;;;;;;5089196;28;20550;-60
2023/06/20 11:59:59;;;;;;;3.80;3.50;;;30.40;99.90;;;;;;5088523;28;20203;-60
2023/06/20 12:02:27;;;;;;;3.35;3.20;;;30.70;99.90;;;;;;5073526;28;20592;-59
2023/06/20 12:04:57;;;;;;;3.97;3.65;;;30.90;99.90;;;;;;5091535;28;20218;-60
2023/06/20 12:07:26;;;;;;;3.25;3.05;;;30.80;99.90;;;;;;5093993;28;20223;-59
2023/06/20 12:09:55;;;;;;;3.58;3.38;;;30.70;99.90;;;;;;5089324;28;20230;-60
2023/06/20 12:12:32;;;;;;;3.92;3.58;;;30.60;99.90;;;;;;5093922;28;20197;-60
2023/06/20 12:15:01;;;;;;;3.58;3.28;;;30.40;99.90;;;;;;5093797;28;20190;-59
2023/06/20 12:17:29;;;;;;;3.50;3.30;;;30.20;99.90;;;;;;5084277;28;20596;-59
2023/06/20 12:19:57;;;;;;;6.45;3.50;;;30.10;99.90;;;;;;5084929;28;20211;-60
2023/06/20 12:22:28;;;;;;;3.60;3.30;;;30.10;99.90;;;;;;5085884;28;20542;-60
2023/06/20 12:25:00;;;;;;;4.40;3.58;;;30.30;99.90;;;;;;5084529;28;20563;-59
2023/06/20 12:27:28;;;;;;;4.97;3.63;;;30.30;99.90;;;;;;5092032;28;20189;-59
2023/06/20 12:29:58;;;;;;;4.07;3.78;;;30.20;99.90;;;;;;5090033;28;20188;-60
2023/06/20 12:32:26;;;;;;;3.90;3.40;;;30.20;99.90;;;;;;5094502;28;20227;-60
2023/06/20 12:34:55;;;;;;;3.42;3.10;;;30.20;99.90;;;;;;5089827;28;20216;-60
2023/06/20 12:37:25;;;;;;;3.60;3.40;;;30.30;99.90;;;;;;5089184;28;20229;-59
2023/06/20 12:39:54;;;;;;;3.47;3.30;;;30.30;99.90;;;;;;5087123;28;20224;-60
2023/06/20 12:42:22;;;;;;;3.28;3.08;;;30.10;99.90;;;;;;5093633;28;20651;-60
2023/06/20 12:44:51;;;;;;;3.42;3.20;;;30.10;99.90;;;;;;5088484;28;20194;-60
2023/06/20 12:47:20;;;;;;;3.67;3.35;;;30.00;99.90;;;;;;5093541;28;20216;-61
2023/06/20 12:49:49;;;;;;;3.88;3.35;;;30.10;99.90;;;;;;5085015;28;20224;-60
2023/06/20 12:52:19;;;;;;;3.42;3.15;;;30.10;99.90;;;;;;5093505;28;20230;-61
2023/06/20 12:54:47;;;;;;;6.28;3.20;;;30.20;99.90;;;;;;5090770;28;20590;-59
2023/06/20 12:57:16;;;;;;;3.42;3.22;;;30.20;99.90;;;;;;5081157;28;20207;-59
2023/06/20 12:59:44;;;;;;;3.05;2.78;;;30.00;99.90;;;;;;5085440;28;20207;-60
2023/06/20 13:02:12;;;;;;;3.35;3.13;;;29.90;99.90;;;;;;5081226;28;20230;-60
2023/06/20 13:04:43;;;;;;;3.63;3.47;;;29.90;99.90;;;;;;5082138;28;20223;-60
2023/06/20 13:07:11;;;;;;;5.30;3.30;;;29.80;99.90;;;;;;5088873;28;20227;-60
2023/06/20 13:09:40;;;;;;;3.58;3.38;;;29.80;99.90;;;;;;5085260;28;20230;-61
2023/06/20 13:12:08;;;;;;;3.80;3.30;;;29.80;99.90;;;;;;5083244;28;20659;-60
2023/06/20 13:14:37;;;;;;;4.43;3.13;;;29.70;99.90;;;;;;5089939;28;20226;-60